Time;durP1;ratioP1;P1;durP2;ratioP2;P2;SDS_P1;SDS_P2;PMS_P1;PMS_P2;Temp;Humidity;BMP_temperature;BMP_pressure;BME280_temperature;BME280_humidity;BME280_pressure;Samples;Min_cycle;Max_cycle;Signal;HPM_P1;HPM_P2
2021/07/01 00:00:31;;;;;;;49.30;18.20;;;;;;;12.73;100.00;101597.50;5227023;28;20025;-83
2021/07/01 00:03:04;;;;;;;37.55;15.68;;;;;;;12.82;100.00;101585.78;5234385;28;20056;-83
2021/07/01 00:05:34;;;;;;;43.90;17.73;;;;;;;12.73;100.00;101589.44;5229096;28;20516;-83
2021/07/01 00:08:05;;;;;;;51.00;17.67;;;;;;;12.73;100.00;101576.81;5238802;28;20029;-83
2021/07/01 00:10:36;;;;;;;42.50;16.42;;;;;;;12.69;100.00;101589.75;5236502;28;20021;-83
2021/07/01 00:13:06;;;;;;;45.88;18.98;;;;;;;12.70;100.00;101577.13;5235522;28;20029;-83
2021/07/01 00:15:37;;;;;;;50.85;19.35;;;;;;;12.72;100.00;101579.69;5240169;28;20020;-83
2021/07/01 00:18:08;;;;;;;50.45;18.08;;;;;;;12.68;100.00;101582.69;5237106;28;20017;-83
2021/07/01 00:20:38;;;;;;;53.00;19.75;;;;;;;12.75;100.00;101582.91;5239449;28;20040;-83
2021/07/01 00:23:09;;;;;;;43.75;16.60;;;;;;;12.74;100.00;101581.19;5239258;28;20033;-83
2021/07/01 00:25:41;;;;;;;46.30;16.92;;;;;;;12.76;100.00;101578.34;5238156;28;20086;-83
2021/07/01 00:28:12;;;;;;;45.90;16.55;;;;;;;12.75;100.00;101573.94;5238859;28;20059;-83
2021/07/01 00:30:42;;;;;;;39.50;16.55;;;;;;;12.67;100.00;101575.63;5245088;28;20025;-83
2021/07/01 00:33:12;;;;;;;49.35;17.52;;;;;;;12.64;100.00;101573.22;5245066;28;20013;-83
2021/07/01 00:35:43;;;;;;;45.25;18.17;;;;;;;12.64;100.00;101577.78;5235043;28;20392;-83
2021/07/01 00:38:13;;;;;;;46.47;16.90;;;;;;;12.69;100.00;101573.59;5239195;28;20025;-83
2021/07/01 00:40:44;;;;;;;40.58;16.75;;;;;;;12.65;100.00;101577.63;5238190;28;20032;-83
2021/07/01 00:43:14;;;;;;;46.38;17.92;;;;;;;12.63;100.00;101570.72;5238136;28;20028;-83
2021/07/01 00:45:45;;;;;;;42.38;16.10;;;;;;;12.65;100.00;101574.94;5243610;28;20035;-83
2021/07/01 00:48:16;;;;;;;46.13;18.20;;;;;;;12.58;100.00;101579.28;5242033;28;20423;-83
2021/07/01 00:50:50;;;;;;;44.85;17.27;;;;;;;12.63;100.00;101574.25;5240348;28;20025;-83
2021/07/01 00:53:20;;;;;;;62.92;18.90;;;;;;;12.63;100.00;101581.47;5243241;28;20013;-83
2021/07/01 00:55:51;;;;;;;57.65;17.25;;;;;;;12.65;100.00;101574.94;5247290;28;20051;-83
2021/07/01 00:58:22;;;;;;;46.45;18.60;;;;;;;12.67;100.00;101583.69;5240835;28;20033;-83
2021/07/01 01:01:02;;;;;;;59.20;17.95;;;;;;;12.57;100.00;101569.53;5245868;28;20028;-83
2021/07/01 01:03:35;;;;;;;59.63;18.38;;;;;;;12.54;100.00;101577.91;5242810;28;20380;-83
2021/07/01 01:06:08;;;;;;;51.00;18.23;;;;;;;12.53;100.00;101576.22;5237370;28;20063;-83
2021/07/01 01:08:39;;;;;;;63.03;19.38;;;;;;;12.55;100.00;101574.22;5236867;28;20024;-83
2021/07/01 01:11:09;;;;;;;52.95;18.15;;;;;;;12.49;100.00;101572.16;5235398;28;20076;-83
2021/07/01 01:13:43;;;;;;;58.83;18.67;;;;;;;12.54;100.00;101571.69;5235787;28;20045;-83
2021/07/01 01:16:13;;;;;;;59.78;18.65;;;;;;;12.51;100.00;101572.88;5235968;28;20021;-83
2021/07/01 01:18:45;;;;;;;51.92;18.75;;;;;;;12.47;100.00;101565.28;5235186;28;20598;-83
2021/07/01 01:21:22;;;;;;;63.90;18.80;;;;;;;12.51;100.00;101566.63;5247487;28;20025;-83
2021/07/01 01:23:58;;;;;;;59.22;19.77;;;;;;;12.57;100.00;101576.75;5236350;28;20533;-83
2021/07/01 01:26:28;;;;;;;60.88;20.63;;;;;;;12.57;100.00;101574.91;5236654;28;20028;-83
2021/07/01 01:28:59;;;;;;;52.17;17.90;;;;;;;12.54;100.00;101577.91;5243657;28;20035;-83
2021/07/01 01:31:29;;;;;;;59.92;18.15;;;;;;;12.50;100.00;101570.31;5235880;28;20025;-83
2021/07/01 01:34:00;;;;;;;59.00;17.70;;;;;;;12.53;100.00;101572.69;5233882;28;20048;-83
2021/07/01 01:36:32;;;;;;;56.28;18.77;;;;;;;12.47;100.00;101576.88;5234954;28;20033;-83
2021/07/01 01:39:03;;;;;;;57.45;19.08;;;;;;;12.44;100.00;101564.56;5234985;28;20028;-84
2021/07/01 01:41:33;;;;;;;64.63;19.88;;;;;;;12.49;100.00;101568.63;5239088;28;20043;-83
2021/07/01 01:44:04;;;;;;;55.40;16.88;;;;;;;12.46;100.00;101571.66;5238211;28;20037;-83
2021/07/01 01:46:39;;;;;;;62.60;18.75;;;;;;;12.48;100.00;101561.56;5244758;28;20044;-83
2021/07/01 01:49:24;;;;;;;56.72;17.13;;;;;;;12.42;100.00;101568.44;5232284;28;20095;-83
2021/07/01 01:51:55;;;;;;;49.38;17.90;;;;;;;12.41;100.00;101566.75;5236100;28;20025;-83
2021/07/01 01:54:25;;;;;;;50.22;17.40;;;;;;;12.37;100.00;101563.53;5230912;28;20033;-83
2021/07/01 01:56:57;;;;;;;53.28;18.50;;;;;;;12.35;100.00;101564.69;5238774;28;20086;-83
2021/07/01 01:59:27;;;;;;;55.35;18.85;;;;;;;12.37;100.00;101565.38;5232667;28;20471;-83
2021/07/01 02:01:58;;;;;;;58.63;17.95;;;;;;;12.35;100.00;101567.38;5235021;28;20016;-83
2021/07/01 02:04:29;;;;;;;53.85;17.92;;;;;;;12.33;100.00;101570.25;5239789;28;20025;-83
2021/07/01 02:06:59;;;;;;;54.35;17.33;;;;;;;12.30;100.00;101565.19;5237858;28;20099;-83
2021/07/01 02:09:30;;;;;;;56.55;18.02;;;;;;;12.32;100.00;101567.72;5228792;28;20013;-83
2021/07/01 02:12:01;;;;;;;49.80;17.60;;;;;;;12.32;100.00;101573.94;5242805;28;20024;-83
2021/07/01 02:14:31;;;;;;;51.30;17.58;;;;;;;12.31;100.00;101563.34;5229683;28;20345;-83
2021/07/01 02:17:03;;;;;;;52.70;18.55;;;;;;;12.31;100.00;101571.41;5233524;28;20027;-83
2021/07/01 02:19:33;;;;;;;49.20;16.38;;;;;;;12.38;100.00;101569.75;5230280;28;20036;-83
2021/07/01 02:22:04;;;;;;;57.63;18.55;;;;;;;12.31;100.00;101566.88;5231595;28;20013;-83
2021/07/01 02:24:35;;;;;;;54.33;19.05;;;;;;;12.32;100.00;101573.09;5230576;28;20032;-83
2021/07/01 02:27:05;;;;;;;51.47;17.48;;;;;;;12.33;100.00;101564.00;5233092;28;20075;-83
2021/07/01 02:29:36;;;;;;;53.55;18.00;;;;;;;12.33;100.00;101566.72;5230668;28;20384;-83
2021/07/01 02:32:07;;;;;;;61.05;19.30;;;;;;;12.37;100.00;101573.47;5227532;28;20025;-83
2021/07/01 02:34:41;;;;;;;56.67;17.40;;;;;;;12.36;100.00;101574.47;5227292;28;20028;-83
2021/07/01 02:37:12;;;;;;;59.85;18.08;;;;;;;12.35;100.00;101568.25;5229358;28;20025;-83
2021/07/01 02:39:43;;;;;;;52.75;17.65;;;;;;;12.37;100.00;101573.47;5230076;28;20031;-83
2021/07/01 02:42:14;;;;;;;49.33;17.67;;;;;;;12.49;100.00;101574.84;5227094;28;20024;-83
2021/07/01 02:44:44;;;;;;;56.35;19.88;;;;;;;12.46;100.00;101574.34;5226464;28;20044;-83
2021/07/01 02:47:15;;;;;;;50.58;17.25;;;;;;;12.44;100.00;101566.41;5226628;28;20032;-83
2021/07/01 02:49:45;;;;;;;47.53;18.35;;;;;;;12.50;100.00;101571.19;5227456;28;20111;-83
2021/07/01 02:52:16;;;;;;;67.85;19.98;;;;;;;12.43;100.00;101579.03;5239446;28;20024;-83
2021/07/01 02:54:46;;;;;;;45.38;17.52;;;;;;;12.44;100.00;101575.34;5235725;28;20480;-83
2021/07/01 02:57:17;;;;;;;49.65;18.52;;;;;;;12.46;100.00;101572.50;5234450;28;20107;-83
2021/07/01 02:59:47;;;;;;;57.03;18.52;;;;;;;12.43;100.00;101575.50;5240968;28;20017;-83
2021/07/01 03:02:18;;;;;;;50.90;17.40;;;;;;;12.45;100.00;101573.50;5244385;28;20017;-83
2021/07/01 03:04:48;;;;;;;47.90;18.13;;;;;;;12.43;100.00;101578.19;5226744;28;20017;-83
2021/07/01 03:07:19;;;;;;;54.92;17.67;;;;;;;12.40;100.00;101575.84;5230609;28;20028;-83
2021/07/01 03:09:49;;;;;;;50.92;17.52;;;;;;;12.37;100.00;101582.38;5237994;28;20384;-83
2021/07/01 03:12:19;;;;;;;49.60;17.58;;;;;;;12.45;100.00;101584.28;5237530;28;20100;-83
2021/07/01 03:14:50;;;;;;;52.78;18.42;;;;;;;12.38;100.00;101578.66;5240550;28;20637;-83
2021/07/01 03:17:21;;;;;;;50.05;17.92;;;;;;;12.45;100.00;101576.22;5239290;28;20103;-83
2021/07/01 03:19:51;;;;;;;45.42;16.88;;;;;;;12.38;100.00;101573.28;5244512;28;20052;-82
2021/07/01 03:22:22;;;;;;;49.80;17.92;;;;;;;12.33;100.00;101574.78;5237440;28;20017;-83
2021/07/01 03:24:52;;;;;;;49.30;17.27;;;;;;;12.33;100.00;101580.16;5237717;28;20025;-83
2021/07/01 03:27:23;;;;;;;47.80;18.05;;;;;;;12.33;100.00;101581.00;5239950;28;20026;-83
2021/07/01 03:29:53;;;;;;;51.85;15.73;;;;;;;12.34;100.00;101571.06;5239374;28;20075;-83
2021/07/01 03:32:24;;;;;;;43.45;15.60;;;;;;;12.46;100.00;101577.03;5236569;28;20013;-83
2021/07/01 03:34:54;;;;;;;44.72;17.85;;;;;;;12.42;100.00;101580.03;5228155;28;20033;-83
2021/07/01 03:37:25;;;;;;;50.50;16.58;;;;;;;12.35;100.00;101573.63;5242408;28;20483;-83
2021/07/01 03:39:55;;;;;;;51.33;16.60;;;;;;;12.36;100.00;101566.41;5237838;28;20033;-83
2021/07/01 03:42:26;;;;;;;48.33;16.65;;;;;;;12.31;100.00;101571.41;5236238;28;20025;-83
2021/07/01 03:44:56;;;;;;;48.55;17.80;;;;;;;12.31;100.00;101568.72;5232381;28;20028;-83
2021/07/01 03:47:27;;;;;;;50.33;17.83;;;;;;;12.32;100.00;101565.03;5246642;28;20059;-83
2021/07/01 03:49:57;;;;;;;57.88;18.85;;;;;;;12.29;100.00;101570.72;5232318;28;20032;-83
2021/07/01 03:52:28;;;;;;;43.78;16.58;;;;;;;12.35;100.00;101567.38;5246757;28;20468;-83
2021/07/01 03:54:58;;;;;;;53.63;17.02;;;;;;;12.34;100.00;101571.91;5233925;28;20557;-83
2021/07/01 03:57:29;;;;;;;48.25;16.48;;;;;;;12.33;100.00;101564.84;5245256;28;20537;-83
2021/07/01 04:00:02;;;;;;;58.45;16.70;;;;;;;12.33;100.00;101577.47;5237329;28;20035;-83
2021/07/01 04:02:32;;;;;;;47.25;16.67;;;;;;;12.33;100.00;101575.63;5241645;28;20033;-83
2021/07/01 04:05:04;;;;;;;45.97;16.40;;;;;;;12.38;100.00;101577.84;5245963;28;20026;-83
2021/07/01 04:07:35;;;;;;;48.28;16.48;;;;;;;12.38;100.00;101575.97;5236125;28;20033;-83
2021/07/01 04:10:10;;;;;;;59.10;18.45;;;;;;;12.34;100.00;101573.75;5225295;28;20079;-83
2021/07/01 04:12:41;;;;;;;50.33;15.23;;;;;;;12.34;100.00;101581.84;5236438;28;20047;-83
2021/07/01 04:15:12;;;;;;;41.25;16.60;;;;;;;12.33;100.00;101582.84;5225725;28;20100;-83
2021/07/01 04:17:42;;;;;;;51.10;17.77;;;;;;;12.31;100.00;101579.50;5243894;28;20093;-83
2021/07/01 04:20:13;;;;;;;40.85;16.42;;;;;;;12.31;100.00;101576.78;5229653;28;20024;-83
2021/07/01 04:22:43;;;;;;;47.78;16.60;;;;;;;12.31;100.00;101585.72;5233966;28;20020;-83
2021/07/01 04:25:14;;;;;;;48.00;15.75;;;;;;;12.33;100.00;101580.16;5228346;28;20212;-82
2021/07/01 04:27:44;;;;;;;48.72;17.50;;;;;;;12.29;100.00;101579.63;5227165;28;20144;-83
2021/07/01 04:30:15;;;;;;;51.17;16.52;;;;;;;12.39;100.00;101579.50;5251615;28;20092;-83
2021/07/01 04:32:45;;;;;;;47.50;16.25;;;;;;;12.35;100.00;101581.69;5244341;28;20025;-83
2021/07/01 04:35:16;;;;;;;43.90;16.63;;;;;;;12.38;100.00;101589.44;5239739;28;20037;-83
2021/07/01 04:37:47;;;;;;;49.78;16.83;;;;;;;12.36;100.00;101596.84;5238854;28;20028;-83
2021/07/01 04:40:17;;;;;;;48.38;17.25;;;;;;;12.42;100.00;101592.66;5247960;28;20025;-83
2021/07/01 04:42:48;;;;;;;56.10;17.38;;;;;;;12.38;100.00;101591.28;5248598;28;20019;-83
2021/07/01 04:45:18;;;;;;;50.67;18.00;;;;;;;12.44;100.00;101598.72;5249820;28;20298;-83
2021/07/01 04:47:49;;;;;;;50.28;16.92;;;;;;;12.50;100.00;101594.53;5243883;28;20025;-83
2021/07/01 04:50:19;;;;;;;49.88;16.33;;;;;;;12.50;100.00;101597.22;5241388;28;20039;-83
2021/07/01 04:52:50;;;;;;;46.83;16.27;;;;;;;12.52;100.00;101590.69;5258118;28;20021;-83
2021/07/01 04:55:20;;;;;;;46.55;16.98;;;;;;;12.50;100.00;101595.41;5245044;28;20032;-83
2021/07/01 04:57:50;;;;;;;47.90;16.63;;;;;;;12.55;100.00;101595.75;5259623;28;20035;-83
2021/07/01 05:00:21;;;;;;;46.55;15.82;;;;;;;12.52;100.00;101604.16;5255827;28;20718;-83
2021/07/01 05:02:51;;;;;;;51.90;16.65;;;;;;;12.54;100.00;101596.75;5255478;28;20021;-83
2021/07/01 05:05:22;;;;;;;47.22;15.85;;;;;;;12.63;100.00;101592.25;5257984;28;20028;-83
2021/07/01 05:07:53;;;;;;;44.40;16.95;;;;;;;12.63;100.00;101597.63;5252956;28;20024;-83
2021/07/01 05:10:23;;;;;;;43.83;16.20;;;;;;;12.66;100.00;101602.72;5227451;28;20031;-83
2021/07/01 05:12:55;;;;;;;46.60;15.55;;;;;;;12.66;100.00;101598.16;5243759;28;20016;-83
2021/07/01 05:15:26;;;;;;;47.22;16.95;;;;;;;12.68;100.00;101596.13;5236341;28;20033;-83
2021/07/01 05:17:56;;;;;;;48.53;16.92;;;;;;;12.61;100.00;101595.13;5236992;28;20033;-83
2021/07/01 05:20:27;;;;;;;45.72;16.55;;;;;;;12.63;100.00;101597.63;5236157;28;20075;-83
2021/07/01 05:22:57;;;;;;;47.08;16.02;;;;;;;12.62;100.00;101598.66;5222658;28;20055;-83
2021/07/01 05:25:27;;;;;;;37.50;15.45;;;;;;;12.67;100.00;101593.63;5243348;28;20095;-83
2021/07/01 05:27:58;;;;;;;44.20;15.40;;;;;;;12.67;100.00;101593.63;5238113;28;20024;-83
2021/07/01 05:30:28;;;;;;;48.53;16.08;;;;;;;12.66;100.00;101589.25;5235454;28;20073;-83
2021/07/01 05:32:59;;;;;;;49.10;16.77;;;;;;;12.74;100.00;101593.81;5235789;28;20041;-83
2021/07/01 05:35:29;;;;;;;38.60;14.63;;;;;;;12.67;100.00;101597.16;5218204;28;20094;-83
2021/07/01 05:38:00;;;;;;;46.13;14.63;;;;;;;12.77;100.00;101596.19;5235305;28;20111;-83
2021/07/01 05:40:30;;;;;;;38.35;13.48;;;;;;;12.80;100.00;101590.47;5235989;28;20403;-83
2021/07/01 05:43:01;;;;;;;39.22;14.38;;;;;;;12.74;100.00;101599.19;5236402;28;20171;-83
2021/07/01 05:45:31;;;;;;;33.53;12.88;;;;;;;12.70;100.00;101595.97;5226382;28;20033;-83
2021/07/01 05:48:02;;;;;;;41.38;14.85;;;;;;;12.68;100.00;101595.31;5223519;28;20119;-83
2021/07/01 05:50:40;;;;;;;34.92;11.90;;;;;;;12.75;100.00;101590.09;5225693;28;20025;-83
2021/07/01 05:53:15;;;;;;;33.80;10.35;;;;;;;12.74;100.00;101596.50;5226501;28;20037;-83
2021/07/01 05:55:46;;;;;;;29.42;9.73;;;;;;;12.75;100.00;101596.34;5226288;28;20491;-83
2021/07/01 05:58:16;;;;;;;22.30;8.43;;;;;;;12.77;100.00;101598.88;5227814;28;20073;-84
2021/07/01 06:00:47;;;;;;;26.05;10.05;;;;;;;12.74;100.00;101594.66;5219346;28;20112;-85
2021/07/01 06:03:17;;;;;;;32.40;9.15;;;;;;;12.79;100.00;101602.25;5229748;28;20025;-83
2021/07/01 06:05:54;;;;;;;30.27;8.73;;;;;;;12.79;100.00;101591.47;5227415;28;20032;-83
2021/07/01 06:08:31;;;;;;;31.25;8.68;;;;;;;12.78;100.00;101600.56;5241581;28;20021;-83
2021/07/01 06:11:05;;;;;;;42.40;9.18;;;;;;;12.77;100.00;101598.88;5232244;28;20432;-84
2021/07/01 06:13:42;;;;;;;25.63;8.88;;;;;;;12.84;100.00;101603.44;5239950;28;20047;-84
2021/07/01 06:16:15;;;;;;;26.45;8.38;;;;;;;12.79;100.00;101603.06;5227739;28;20024;-84
2021/07/01 06:18:45;;;;;;;26.27;8.57;;;;;;;12.83;100.00;101604.44;5224751;28;20029;-84
2021/07/01 06:21:16;;;;;;;22.20;7.45;;;;;;;12.91;100.00;101604.50;5224067;28;20025;-84
2021/07/01 06:23:47;;;;;;;23.92;7.45;;;;;;;12.87;100.00;101605.81;5224150;28;20035;-84
2021/07/01 06:26:25;;;;;;;23.92;8.10;;;;;;;12.87;100.00;101610.34;5227675;28;20026;-84
2021/07/01 06:28:56;;;;;;;19.20;7.03;;;;;;;12.92;100.00;101613.41;5228784;28;20029;-84
2021/07/01 06:31:26;;;;;;;24.80;7.75;;;;;;;12.96;100.00;101610.22;5230000;28;20025;-84
2021/07/01 06:33:57;;;;;;;24.05;6.85;;;;;;;12.99;100.00;101610.91;5224560;28;20048;-85
2021/07/01 06:36:28;;;;;;;18.48;7.22;;;;;;;13.06;100.00;101614.63;5224897;28;20059;-85
2021/07/01 06:39:01;;;;;;;23.13;8.00;;;;;;;13.08;100.00;101616.16;5229886;28;20021;-84
2021/07/01 06:41:35;;;;;;;23.60;7.43;;;;;;;13.10;100.00;101621.38;5234824;28;20025;-84
2021/07/01 06:44:07;;;;;;;24.67;7.88;;;;;;;13.18;100.00;101622.25;5231285;28;20032;-84
2021/07/01 06:46:39;;;;;;;29.15;8.57;;;;;;;13.16;100.00;101621.56;5236776;28;20055;-84
2021/07/01 06:49:11;;;;;;;21.83;7.50;;;;;;;13.26;100.00;101616.06;5228707;28;20050;-84
2021/07/01 06:51:42;;;;;;;21.42;7.45;;;;;;;13.31;100.00;101612.88;5233489;28;20025;-84
2021/07/01 06:54:15;;;;;;;22.25;6.63;;;;;;;13.40;100.00;101622.66;5236565;28;20017;-83
2021/07/01 06:56:47;;;;;;;18.70;7.15;;;;;;;13.43;100.00;101622.31;5237777;28;20067;-84
2021/07/01 06:59:20;;;;;;;23.17;7.20;;;;;;;13.51;100.00;101625.03;5242918;28;20025;-83
2021/07/01 07:01:51;;;;;;;19.58;7.03;;;;;;;13.62;100.00;101622.00;5242659;28;20023;-84
2021/07/01 07:04:21;;;;;;;16.70;6.95;;;;;;;13.74;100.00;101619.81;5242623;28;20021;-83
2021/07/01 07:06:53;;;;;;;24.08;7.05;;;;;;;13.91;100.00;101621.53;5238903;28;20024;-84
2021/07/01 07:09:23;;;;;;;19.35;6.53;;;;;;;13.87;100.00;101622.88;5244391;28;20190;-84
2021/07/01 07:11:54;;;;;;;14.52;5.72;;;;;;;13.89;100.00;101631.63;5240411;28;20024;-84
2021/07/01 07:14:25;;;;;;;13.90;5.22;;;;;;;13.74;100.00;101636.00;5239726;28;20049;-84
2021/07/01 07:16:58;;;;;;;17.35;6.72;;;;;;;13.57;100.00;101631.63;5247701;28;20086;-84
2021/07/01 07:19:30;;;;;;;26.83;7.18;;;;;;;13.55;100.00;101636.31;5253507;28;20032;-84
2021/07/01 07:22:03;;;;;;;22.00;6.60;;;;;;;13.61;100.00;101641.91;5253644;28;20017;-84
2021/07/01 07:24:35;;;;;;;19.98;6.70;;;;;;;13.60;100.00;101637.50;5250463;28;20059;-83
2021/07/01 07:27:07;;;;;;;16.15;5.35;;;;;;;13.46;100.00;101640.88;5243514;28;20028;-83
2021/07/01 07:29:41;;;;;;;19.88;6.30;;;;;;;13.60;100.00;101642.03;5252888;28;20028;-84
2021/07/01 07:32:14;;;;;;;17.23;5.75;;;;;;;13.54;100.00;101645.41;5248807;28;20013;-83
2021/07/01 07:34:45;;;;;;;12.32;5.10;;;;;;;13.50;100.00;101647.59;5230783;28;20085;-83
2021/07/01 07:37:15;;;;;;;20.77;6.13;;;;;;;13.60;100.00;101645.59;5242064;28;20083;-85
2021/07/01 07:39:47;;;;;;;17.35;6.05;;;;;;;13.58;100.00;101644.91;5249656;28;20549;-84
2021/07/01 07:42:18;;;;;;;20.88;5.80;;;;;;;13.65;100.00;101645.94;5252776;28;20113;-84
2021/07/01 07:44:48;;;;;;;18.33;6.85;;;;;;;13.67;100.00;101646.63;5245666;28;20024;-85
2021/07/01 07:47:20;;;;;;;20.92;5.55;;;;;;;13.94;100.00;101641.91;5254013;28;20024;-85
2021/07/01 07:49:50;;;;;;;21.08;5.43;;;;;;;14.07;100.00;101639.56;5225562;28;20025;-85
2021/07/01 07:52:22;;;;;;;18.90;6.13;;;;;;;14.25;100.00;101633.94;5239302;28;20029;-84
2021/07/01 07:54:58;;;;;;;21.77;6.13;;;;;;;14.28;100.00;101635.47;5225568;28;20044;-84
2021/07/01 07:57:33;;;;;;;24.88;6.63;;;;;;;14.19;100.00;101640.88;5223738;28;20027;-84
2021/07/01 08:00:04;;;;;;;20.50;7.38;;;;;;;14.07;100.00;101636.84;5226985;28;20028;-84
2021/07/01 08:02:52;;;;;;;21.63;7.55;;;;;;;14.12;100.00;101641.75;5228972;28;20021;-85
2021/07/01 08:05:28;;;;;;;19.10;6.18;;;;;;;14.14;100.00;101631.59;5227211;28;20020;-84
2021/07/01 08:08:00;;;;;;;18.63;5.53;;;;;;;14.11;100.00;101638.19;5232692;28;20021;-85
2021/07/01 08:10:32;;;;;;;27.02;6.90;;;;;;;14.11;100.00;101637.38;5237876;28;20061;-84
2021/07/01 08:13:07;;;;;;;25.70;7.15;;;;;;;14.14;100.00;101642.41;5234674;28;20021;-84
2021/07/01 08:15:40;;;;;;;26.02;6.78;;;;;;;14.22;100.00;101637.84;5232953;28;20020;-85
2021/07/01 08:18:20;;;;;;;32.45;7.95;;;;;;;14.18;100.00;101639.19;5225104;28;20037;-85
2021/07/01 08:20:51;;;;;;;26.83;7.80;;;;;;;14.21;100.00;101638.03;5227555;28;20025;-84
2021/07/01 08:23:22;;;;;;;25.63;8.20;;;;;;;14.25;100.00;101648.28;5232403;28;20111;-84
2021/07/01 08:25:53;;;;;;;27.17;7.95;;;;;;;14.33;100.00;101646.59;5226035;28;20112;-83
2021/07/01 08:28:24;;;;;;;29.98;8.10;;;;;;;14.52;100.00;101648.94;5224369;28;20028;-85
2021/07/01 08:30:57;;;;;;;28.60;8.27;;;;;;;14.65;100.00;101651.09;5224548;28;20472;-84
2021/07/01 08:33:42;;;;;;;26.92;8.95;;;;;;;14.31;100.00;101648.59;5228910;28;20028;-85
2021/07/01 08:36:20;;;;;;;35.38;9.45;;;;;;;14.37;100.00;101661.44;5226241;28;20033;-85
2021/07/01 08:38:56;;;;;;;32.53;10.02;;;;;;;14.22;100.00;101661.28;5227213;28;20032;-84
2021/07/01 08:41:29;;;;;;;41.25;9.95;;;;;;;14.26;100.00;101662.63;5231296;28;20559;-85
2021/07/01 08:44:08;;;;;;;36.97;8.82;;;;;;;14.31;100.00;101659.41;5236705;28;20480;-85
2021/07/01 08:46:49;;;;;;;37.42;8.60;;;;;;;14.40;100.00;101658.38;5246979;28;20036;-85
2021/07/01 08:49:35;;;;;;;29.80;8.52;;;;;;;14.43;100.00;101660.75;5215967;28;20487;-84
2021/07/01 08:52:06;;;;;;;34.17;8.65;;;;;;;14.42;100.00;101665.31;5233976;28;20117;-84
2021/07/01 08:54:37;;;;;;;28.05;8.23;;;;;;;14.41;100.00;101665.50;5244646;28;20436;-85
2021/07/01 08:57:13;;;;;;;30.73;7.90;;;;;;;14.48;100.00;101663.81;5244127;28;20102;-84
2021/07/01 08:59:56;;;;;;;30.40;8.50;;;;;;;14.42;100.00;101670.72;5227311;28;20079;-85
2021/07/01 09:02:37;;;;;;;29.65;7.65;;;;;;;14.53;100.00;101668.69;5236147;28;20424;-85
2021/07/01 09:05:28;;;;;;;24.88;8.68;;;;;;;14.57;100.00;101675.44;5235724;28;20029;-84
2021/07/01 09:08:01;;;;;;;31.08;9.00;;;;;;;14.56;100.00;101682.69;5222128;28;20052;-84
2021/07/01 09:10:32;;;;;;;29.13;8.27;;;;;;;14.56;100.00;101668.31;5233490;28;20032;-84
2021/07/01 09:13:10;;;;;;;27.00;8.02;;;;;;;14.61;100.00;101677.63;5236597;28;20101;-85
2021/07/01 09:15:41;;;;;;;31.02;7.75;;;;;;;14.63;100.00;101678.28;5236764;28;20480;-84
2021/07/01 09:18:13;;;;;;;25.27;8.52;;;;;;;14.58;100.00;101677.97;5242943;28;20496;-84
2021/07/01 09:20:44;;;;;;;29.83;7.18;;;;;;;14.56;100.00;101677.31;5227287;28;20119;-85
2021/07/01 09:23:15;;;;;;;23.50;8.35;;;;;;;14.70;100.00;101681.97;5238566;28;20016;-84
2021/07/01 09:25:46;;;;;;;22.35;7.75;;;;;;;14.87;100.00;101679.25;5223800;28;20380;-85
2021/07/01 09:28:17;;;;;;;26.85;7.05;;;;;;;14.84;100.00;101674.16;5225445;28;20036;-84
2021/07/01 09:30:48;;;;;;;22.02;7.13;;;;;;;14.90;100.00;101676.16;5222339;28;20443;-84
2021/07/01 09:33:19;;;;;;;25.65;6.88;;;;;;;14.92;100.00;101674.16;5232747;28;20028;-85
2021/07/01 09:35:50;;;;;;;21.80;7.38;;;;;;;14.85;100.00;101668.59;5224336;28;20024;-84
2021/07/01 09:38:21;;;;;;;21.92;7.47;;;;;;;14.91;100.00;101672.44;5219656;28;20021;-85
2021/07/01 09:40:52;;;;;;;25.23;8.00;;;;;;;14.94;100.00;101672.94;5219814;28;20028;-85
2021/07/01 09:43:27;;;;;;;24.10;8.32;;;;;;;14.88;100.00;101662.00;5227683;28;20033;-84
2021/07/01 09:46:00;;;;;;;26.45;7.95;;;;;;;14.92;100.00;101680.41;5235025;28;20028;-86
2021/07/01 09:48:35;;;;;;;27.25;8.68;;;;;;;15.03;100.00;101677.31;5224506;28;20024;-85
2021/07/01 09:51:06;;;;;;;31.17;6.97;;;;;;;14.89;100.00;101679.91;5234116;28;20098;-85
2021/07/01 09:53:37;;;;;;;26.45;7.13;;;;;;;14.96;100.00;101687.16;5231513;28;20033;-84
2021/07/01 09:56:13;;;;;;;20.15;7.40;;;;;;;15.00;100.00;101693.03;5219655;28;20033;-85
2021/07/01 09:58:48;;;;;;;21.65;7.63;;;;;;;14.80;100.00;101691.75;5222750;28;20395;-85
2021/07/01 10:01:22;;;;;;;;;;;;;;;14.91;100.00;101686.81;5231365;28;20032;-85
2021/07/01 10:03:54;;;;;;;24.80;7.93;;;;;;;14.94;100.00;101693.72;5230637;28;19986;-85
2021/07/01 10:06:25;;;;;;;21.95;7.13;;;;;;;14.97;100.00;101694.22;5228214;28;20032;-84
2021/07/01 10:08:56;;;;;;;23.80;7.65;;;;;;;14.82;100.00;101698.66;5231566;28;20020;-85
2021/07/01 10:11:42;;;;;;;22.65;6.90;;;;;;;14.66;100.00;101702.25;5231582;28;20025;-85
2021/07/01 10:14:15;;;;;;;19.48;6.50;;;;;;;14.82;100.00;101700.53;5236182;28;20068;-85
2021/07/01 10:16:46;;;;;;;15.38;6.05;;;;;;;14.83;100.00;101688.69;5224887;28;20025;-85
2021/07/01 10:19:18;;;;;;;21.10;6.32;;;;;;;14.93;100.00;101689.34;5230607;28;20558;-84
2021/07/01 10:22:06;;;;;;;20.40;6.22;;;;;;;15.25;100.00;101688.34;5231857;28;20362;-84
2021/07/01 10:24:53;;;;;;;22.67;5.97;;;;;;;15.30;100.00;101688.66;5226243;28;20028;-84
2021/07/01 10:27:33;;;;;;;17.27;5.63;;;;;;;15.48;100.00;101691.94;5225678;28;20032;-84
2021/07/01 10:30:21;;;;;;;21.65;5.60;;;;;;;15.49;100.00;101692.78;5225477;28;20021;-84
2021/07/01 10:32:56;;;;;;;22.67;5.88;;;;;;;15.65;100.00;101700.81;5228324;28;20033;-84
2021/07/01 10:35:31;;;;;;;23.17;6.50;;;;;;;15.53;100.00;101694.97;5225844;28;20021;-84
2021/07/01 10:38:13;;;;;;;20.30;6.15;;;;;;;15.63;100.00;101697.47;5234006;28;20033;-84
2021/07/01 10:40:49;;;;;;;21.05;6.22;;;;;;;15.83;100.00;101703.25;5225553;28;20025;-84
2021/07/01 10:43:36;;;;;;;19.90;6.53;;;;;;;16.08;100.00;101701.22;5234249;28;20025;-84
2021/07/01 10:46:07;;;;;;;18.65;5.82;;;;;;;16.05;100.00;101693.44;5233682;28;20091;-85
2021/07/01 10:48:39;;;;;;;15.68;5.70;;;;;;;16.06;100.00;101705.94;5242916;28;20020;-85
2021/07/01 10:51:11;;;;;;;19.55;5.85;;;;;;;16.23;100.00;101702.09;5243500;28;20127;-85
2021/07/01 10:53:43;;;;;;;14.93;5.90;;;;;;;15.97;100.00;101696.22;5225195;28;20051;-84
2021/07/01 10:56:16;;;;;;;13.45;5.53;;;;;;;16.18;100.00;101695.53;5228039;28;20029;-85
2021/07/01 10:58:58;;;;;;;16.80;5.53;;;;;;;16.22;100.00;101691.47;5225012;28;20498;-85
2021/07/01 11:01:33;;;;;;;12.70;6.65;;;;;;;16.29;100.00;101695.94;5228694;28;20017;-84
2021/07/01 11:04:11;;;;;;;;;;;;;;;16.33;100.00;101695.59;5230766;28;20532;-84
2021/07/01 11:06:43;;;;;;;14.90;5.50;;;;;;;16.49;100.00;101696.25;5236607;28;20007;-85
2021/07/01 11:09:14;;;;;;;18.55;6.18;;;;;;;16.35;100.00;101693.53;5228748;28;20481;-84
2021/07/01 11:11:45;;;;;;;14.98;6.28;;;;;;;16.23;100.00;101691.25;5224815;28;20028;-84
2021/07/01 11:14:17;;;;;;;13.48;5.45;;;;;;;16.09;100.00;101689.34;5225646;28;20032;-84
2021/07/01 11:16:47;;;;;;;20.15;6.10;;;;;;;15.94;100.00;101696.59;5225212;28;20151;-84
2021/07/01 11:19:21;;;;;;;15.35;5.80;;;;;;;16.10;100.00;101695.59;5225189;28;20104;-85
2021/07/01 11:21:53;;;;;;;29.98;6.35;;;;;;;16.09;100.00;101696.63;5238425;28;20017;-84
2021/07/01 11:24:26;;;;;;;10.38;5.18;;;;;;;15.85;100.00;101700.38;5226325;28;20086;-85
2021/07/01 11:27:02;;;;;;;13.73;6.22;;;;;;;15.94;100.00;101697.41;5225018;28;20029;-84
2021/07/01 11:29:44;;;;;;;19.58;6.28;;;;;;;16.00;100.00;101703.97;5228749;28;20332;-85